createdAt,value
2022-10-11T04:17:54.490Z,9.37
2022-10-11T04:20:57.473Z,9.34
2022-10-11T04:24:00.093Z,9.41
2022-10-11T04:27:02.794Z,9.44
2022-10-11T04:30:05.715Z,9.48
2022-10-11T04:33:08.719Z,9.53
2022-10-11T04:36:11.265Z,9.58
2022-10-11T04:39:14.043Z,9.58
2022-10-11T04:42:16.593Z,9.61
2022-10-11T04:45:20.658Z,9.65
2022-10-11T04:48:23.062Z,9.62
2022-10-11T04:51:25.905Z,9.69
2022-10-11T04:54:28.316Z,9.77
2022-10-11T04:57:31.059Z,9.75
2022-10-11T05:00:33.513Z,9.76
2022-10-11T05:03:36.816Z,9.81
2022-10-11T05:06:39.351Z,9.84
2022-10-11T05:09:42.021Z,9.83
2022-10-11T05:12:44.482Z,9.87
2022-10-11T05:15:47.204Z,9.91
2022-10-11T05:18:50.031Z,9.96
2022-10-11T05:21:52.795Z,9.99
2022-10-11T05:24:55.176Z,10.12
2022-10-11T05:27:57.813Z,10.16
2022-10-11T05:31:00.475Z,10.30
2022-10-11T05:34:03.238Z,10.43
2022-10-11T05:37:05.731Z,10.59
2022-10-11T05:40:11.996Z,10.73
2022-10-11T05:43:14.920Z,10.81
2022-10-11T05:46:17.617Z,10.79
2022-10-11T05:49:19.962Z,10.94
2022-10-11T05:52:22.700Z,11.05
2022-10-11T05:55:25.214Z,11.03
2022-10-11T05:58:28.270Z,11.29
2022-10-11T06:01:33.025Z,11.41
2022-10-11T06:04:37.057Z,11.42
2022-10-11T06:07:39.727Z,11.38
2022-10-11T06:10:42.527Z,11.31
2022-10-11T06:13:45.084Z,11.41
2022-10-11T06:16:47.823Z,11.33
2022-10-11T06:19:51.332Z,11.28
2022-10-11T06:26:32.047Z,11.50
2022-10-11T06:29:35.662Z,11.65
2022-10-11T06:36:16.847Z,11.80
2022-10-11T06:39:19.541Z,11.93
2022-10-11T06:42:21.962Z,12.05
2022-10-11T06:45:24.707Z,11.94
2022-10-11T06:55:38.203Z,12.47
2022-10-11T07:02:25.781Z,12.76
2022-10-11T07:05:37.143Z,13.16
2022-10-11T07:08:40.497Z,13.26
2022-10-11T07:11:43.213Z,13.34
2022-10-11T07:14:45.664Z,13.42
2022-10-11T07:17:48.404Z,13.67
2022-10-11T07:20:50.944Z,13.93
2022-10-11T07:23:53.650Z,14.34
2022-10-11T07:26:56.056Z,14.55
2022-10-11T07:29:58.882Z,14.51
2022-10-11T07:33:01.259Z,14.48
2022-10-11T07:36:05.102Z,14.47
2022-10-11T07:39:08.948Z,14.88
2022-10-11T07:42:11.655Z,15.06
2022-10-11T07:45:14.194Z,15.23
2022-10-11T07:48:17.097Z,15.11
2022-10-11T07:51:22.493Z,16.09
2022-10-11T07:54:25.257Z,17.60
2022-10-11T07:57:27.788Z,17.53
2022-10-11T08:00:30.586Z,18.32
2022-10-11T08:03:33.517Z,17.89
2022-10-11T08:06:36.610Z,17.66
2022-10-11T08:09:39.269Z,17.47
2022-10-11T08:12:41.787Z,17.38
2022-10-11T08:15:44.467Z,15.96
2022-10-11T08:18:47.448Z,15.99
2022-10-11T08:21:50.230Z,16.66
2022-10-11T08:24:52.651Z,17.80
2022-10-11T08:27:55.749Z,20.60
2022-10-11T08:30:59.764Z,22.24
2022-10-11T08:34:02.833Z,21.16
2022-10-11T08:37:05.543Z,20.13
2022-10-11T08:40:15.072Z,19.67
2022-10-11T08:43:44.582Z,19.57
2022-10-11T08:47:00.295Z,20.84
2022-10-11T08:50:06.127Z,20.87
2022-10-11T08:53:25.284Z,20.20
2022-10-11T08:56:31.064Z,19.91
2022-10-11T08:59:41.554Z,19.25
2022-10-11T09:03:08.609Z,19.35
2022-10-11T09:06:24.231Z,19.43
2022-10-11T09:09:44.705Z,19.05
2022-10-11T09:13:13.889Z,19.05
2022-10-11T09:16:26.157Z,19.10
2022-10-11T09:19:41.110Z,19.12
2022-10-11T09:22:52.780Z,19.65
2022-10-11T09:26:03.268Z,19.25
2022-10-11T09:29:20.250Z,19.27
2022-10-11T09:32:29.359Z,19.07
2022-10-11T09:35:37.029Z,19.26
2022-10-11T09:38:48.367Z,19.18
2022-10-11T09:45:28.866Z,20.50
2022-10-11T09:48:41.334Z,20.59
2022-10-11T09:51:55.653Z,21.04
2022-10-11T09:55:00.912Z,21.47
2022-10-11T09:58:06.169Z,22.00
2022-10-11T10:01:11.632Z,21.62
2022-10-11T10:04:20.001Z,22.10
2022-10-11T10:07:23.216Z,22.03
2022-10-11T10:10:59.629Z,22.58
2022-10-11T10:14:02.241Z,22.79
2022-10-11T10:17:17.086Z,23.29
2022-10-11T10:20:25.770Z,23.48
2022-10-11T10:23:35.029Z,23.92
2022-10-11T10:26:37.531Z,24.38
2022-10-11T10:29:41.966Z,24.45
2022-10-11T10:33:04.771Z,25.93
2022-10-11T10:36:18.733Z,27.38
2022-10-11T10:39:24.132Z,26.37
2022-10-11T10:42:27.561Z,25.96
2022-10-11T10:45:46.090Z,24.77
2022-10-11T10:52:42.793Z,23.45
2022-10-11T10:55:51.981Z,22.83
2022-10-11T10:59:12.450Z,22.73
2022-10-11T11:02:40.088Z,23.05
2022-10-11T11:06:09.952Z,22.91
2022-10-11T11:09:17.147Z,23.07
2022-10-11T11:12:50.408Z,22.95
2022-10-11T11:16:00.211Z,23.05
2022-10-11T11:19:27.835Z,22.48
2022-10-11T11:22:44.399Z,22.22
2022-10-11T11:26:00.134Z,21.71
2022-10-11T11:32:45.946Z,21.62
2022-10-11T11:35:53.480Z,21.97
2022-10-11T11:39:00.018Z,22.07
2022-10-11T11:42:11.831Z,21.86
2022-10-11T11:45:33.640Z,21.46
2022-10-11T11:48:37.392Z,21.23
2022-10-11T11:51:44.187Z,21.96
2022-10-11T11:55:13.195Z,21.79
2022-10-11T11:58:59.603Z,21.97
2022-10-11T12:02:24.269Z,21.85
2022-10-11T12:05:32.217Z,22.35
2022-10-11T12:08:36.404Z,22.24
2022-10-11T12:15:32.133Z,22.38
2022-10-11T12:18:41.899Z,21.29
2022-10-11T12:21:45.128Z,21.36
2022-10-11T12:25:00.077Z,21.12
2022-10-11T12:28:37.377Z,21.34
2022-10-11T12:31:45.164Z,21.28
2022-10-11T12:38:39.954Z,21.12
2022-10-11T12:41:51.579Z,21.10
2022-10-11T12:45:24.173Z,20.71
2022-10-11T12:48:39.917Z,20.55
2022-10-11T12:52:02.723Z,20.72
2022-10-11T12:55:24.335Z,20.95
2022-10-11T12:58:40.551Z,20.38
2022-10-11T13:01:52.733Z,20.38
2022-10-11T13:05:08.130Z,20.19
2022-10-11T13:08:27.100Z,20.59
2022-10-11T13:11:38.874Z,20.78
2022-10-11T13:15:07.096Z,20.65
2022-10-11T13:18:14.642Z,20.55
2022-10-11T13:21:36.260Z,20.26
2022-10-11T13:24:40.211Z,20.39
2022-10-11T13:27:43.865Z,20.85
2022-10-11T13:30:54.694Z,20.95
2022-10-11T13:33:59.301Z,20.71
2022-10-11T13:37:01.818Z,20.77
2022-10-11T13:40:05.596Z,20.82
2022-10-11T13:43:08.171Z,20.97
2022-10-11T13:46:20.174Z,20.95
2022-10-11T13:49:27.154Z,21.00
2022-10-11T13:52:29.946Z,21.02
2022-10-11T13:55:47.525Z,21.06
2022-10-11T13:58:53.138Z,20.82
2022-10-11T14:02:01.240Z,20.71
2022-10-11T14:05:04.293Z,20.41
2022-10-11T14:08:42.169Z,20.23
2022-10-11T14:11:45.795Z,20.17
2022-10-11T14:14:48.239Z,20.35
2022-10-11T14:17:51.537Z,20.20
2022-10-11T14:20:54.328Z,19.72
2022-10-11T14:23:58.781Z,19.61
2022-10-11T14:27:05.746Z,19.67
2022-10-11T14:30:31.855Z,19.61
2022-10-11T14:33:37.424Z,19.66
2022-10-11T14:36:40.296Z,19.50
2022-10-11T14:39:43.429Z,19.46
2022-10-11T14:42:46.617Z,19.50
2022-10-11T14:45:49.074Z,19.55
2022-10-11T14:48:56.711Z,19.55
2022-10-11T14:51:59.666Z,19.38
2022-10-11T14:55:02.343Z,19.34
2022-10-11T14:58:05.949Z,19.33
2022-10-11T15:01:14.033Z,19.38
2022-10-11T15:04:16.622Z,19.41
2022-10-11T15:07:19.467Z,19.28
2022-10-11T15:10:23.953Z,19.33
2022-10-11T15:13:26.623Z,19.30
2022-10-11T15:16:29.048Z,19.37
2022-10-11T15:19:31.743Z,19.23
2022-10-11T15:22:34.304Z,19.03
2022-10-11T15:25:38.516Z,18.99
2022-10-11T15:28:42.079Z,18.92
